Time;durP1;ratioP1;P1;durP2;ratioP2;P2;SDS_P1;SDS_P2;PMS_P1;PMS_P2;Temp;Humidity;BMP_temperature;BMP_pressure;BME280_temperature;BME280_humidity;BME280_pressure;Samples;Min_cycle;Max_cycle;Signal;HPM_P1;HPM_P2
2023/09/06 00:00:29;;;;;;;14.13;10.13;;;;;;;16.98;100.00;101637.06;4925205;29;20483;-71
2023/09/06 00:03:01;;;;;;;11.37;10.00;;;;;;;16.91;100.00;101635.25;4929706;28;20490;-72
2023/09/06 00:05:31;;;;;;;10.70;9.53;;;;;;;16.90;100.00;101632.72;4954056;28;20463;-71
2023/09/06 00:08:02;;;;;;;12.27;10.50;;;;;;;16.85;100.00;101625.19;4932209;29;20505;-71
2023/09/06 00:10:32;;;;;;;11.70;9.90;;;;;;;16.77;100.00;101622.78;4937292;28;20440;-72
2023/09/06 00:13:01;;;;;;;11.23;9.87;;;;;;;16.73;100.00;101618.81;4944283;28;20935;-71
2023/09/06 00:15:30;;;;;;;9.53;8.30;;;;;;;16.86;100.00;101631.50;4929038;29;20431;-71
2023/09/06 00:18:03;;;;;;;9.57;8.63;;;;;;;17.12;100.00;101633.13;4957148;28;21091;-71
2023/09/06 00:20:36;;;;;;;11.10;9.90;;;;;;;17.34;99.80;101634.34;4948624;28;20516;-71
2023/09/06 00:23:09;;;;;;;11.10;10.00;;;;;;;17.46;98.27;101626.22;4933772;29;20537;-71
2023/09/06 00:25:39;;;;;;;11.27;9.50;;;;;;;17.44;98.12;101628.31;4948904;28;20417;-71
2023/09/06 00:28:08;;;;;;;10.00;9.00;;;;;;;17.25;98.99;101636.56;4932799;29;20427;-71
2023/09/06 00:30:37;;;;;;;18.20;9.70;;;;;;;17.16;100.00;101639.81;4955645;28;20539;-70
2023/09/06 00:33:08;;;;;;;10.90;9.60;;;;;;;17.06;100.00;101631.31;4935536;29;20443;-71
2023/09/06 00:35:39;;;;;;;10.27;9.20;;;;;;;16.95;100.00;101630.97;4942548;28;20445;-71
2023/09/06 00:38:09;;;;;;;12.53;10.00;;;;;;;16.76;100.00;101625.72;4949394;28;20486;-70
2023/09/06 00:40:40;;;;;;;12.40;9.87;;;;;;;16.61;100.00;101628.81;4939727;29;20551;-72
2023/09/06 00:43:10;;;;;;;12.70;11.40;;;;;;;16.51;100.00;101620.25;4931983;29;20454;-70
2023/09/06 00:45:44;;;;;;;12.90;10.53;;;;;;;16.54;100.00;101622.53;4934641;28;20438;-71
2023/09/06 00:48:19;;;;;;;11.60;8.77;;;;;;;16.42;100.00;101629.78;4933603;29;20420;-71
2023/09/06 00:50:51;;;;;;;11.00;9.23;;;;;;;16.39;100.00;101622.88;4948069;28;20975;-70
2023/09/06 00:53:22;;;;;;;12.57;10.63;;;;;;;16.35;100.00;101623.56;4954065;28;20932;-70
2023/09/06 00:55:51;;;;;;;12.43;11.10;;;;;;;16.28;100.00;101626.31;4948146;28;20824;-71
2023/09/06 00:58:22;;;;;;;11.70;9.93;;;;;;;16.20;100.00;101615.69;4930098;29;20473;-72
2023/09/06 01:00:51;;;;;;;11.00;9.90;;;;;;;16.20;100.00;101623.88;4929378;29;20970;-71
2023/09/06 01:03:22;;;;;;;15.77;11.27;;;;;;;16.14;100.00;101621.19;4929539;29;20545;-70
2023/09/06 01:06:02;;;;;;;10.90;9.70;;;;;;;16.17;100.00;101618.03;4944337;28;21001;-71
2023/09/06 01:08:41;;;;;;;15.33;10.57;;;;;;;16.11;100.00;101610.72;4948957;28;20422;-71
2023/09/06 01:11:18;;;;;;;10.77;9.73;;;;;;;16.15;100.00;101617.41;4929557;29;20540;-70
2023/09/06 01:13:49;;;;;;;11.67;10.47;;;;;;;16.22;100.00;101620.91;4941120;29;20430;-71
2023/09/06 01:16:24;;;;;;;11.23;10.13;;;;;;;16.22;100.00;101615.44;4945700;28;20928;-72
2023/09/06 01:18:55;;;;;;;12.07;10.87;;;;;;;16.23;100.00;101622.59;4947641;28;20431;-71
2023/09/06 01:21:28;;;;;;;13.37;10.23;;;;;;;16.47;100.00;101627.22;4938685;29;20454;-72
2023/09/06 01:24:01;;;;;;;9.80;8.90;;;;;;;16.52;100.00;101627.38;4937416;29;20502;-71
2023/09/06 01:26:32;;;;;;;12.53;9.40;;;;;;;16.40;100.00;101629.19;4936092;28;20957;-72
2023/09/06 01:29:03;;;;;;;12.63;10.20;;;;;;;16.28;100.00;101633.69;4941983;29;20532;-70
2023/09/06 01:31:33;;;;;;;10.37;9.40;;;;;;;16.13;100.00;101620.34;4917815;29;20468;-72
2023/09/06 01:34:03;;;;;;;11.53;10.43;;;;;;;16.06;100.00;101619.56;4936685;29;20502;-71
2023/09/06 01:36:33;;;;;;;10.90;9.80;;;;;;;16.08;100.00;101618.28;4928016;29;20427;-73
2023/09/06 01:39:06;;;;;;;11.87;10.00;;;;;;;16.06;100.00;101625.03;4924496;29;20445;-72
2023/09/06 01:41:35;;;;;;;12.73;11.13;;;;;;;16.07;100.00;101627.53;4943168;29;20448;-71
2023/09/06 01:44:05;;;;;;;11.53;10.53;;;;;;;16.06;100.00;101619.56;4953237;29;20605;-70
2023/09/06 01:46:34;;;;;;;10.60;9.60;;;;;;;16.04;100.00;101622.50;4966288;28;20403;-71
2023/09/06 01:49:03;;;;;;;11.30;9.97;;;;;;;16.08;100.00;101618.28;4951829;29;20408;-70
2023/09/06 01:51:33;;;;;;;13.17;10.30;;;;;;;16.13;100.00;101616.78;4952304;28;20427;-70
2023/09/06 01:54:06;;;;;;;12.03;9.93;;;;;;;16.05;100.00;101607.81;4958303;28;20423;-71
2023/09/06 01:56:35;;;;;;;17.33;11.10;;;;;;;15.96;100.00;101608.28;4956666;28;20438;-71
2023/09/06 01:59:05;;;;;;;10.40;9.30;;;;;;;15.86;100.00;101602.47;4942913;28;20439;-70
2023/09/06 02:01:35;;;;;;;11.40;10.30;;;;;;;15.78;100.00;101611.75;4939409;29;20483;-71
2023/09/06 02:04:06;;;;;;;13.07;9.90;;;;;;;15.73;100.00;101603.41;4943140;29;20412;-71
2023/09/06 02:06:35;;;;;;;10.40;9.40;;;;;;;15.69;100.00;101602.16;4956670;28;20981;-71
2023/09/06 02:09:07;;;;;;;11.87;10.33;;;;;;;15.65;100.00;101606.38;4934996;29;20452;-70
2023/09/06 02:11:36;;;;;;;12.10;10.90;;;;;;;15.65;100.00;101611.84;4959198;28;20481;-69
2023/09/06 02:14:06;;;;;;;10.67;9.77;;;;;;;15.65;100.00;101600.91;4952305;29;20851;-71
2023/09/06 02:16:35;;;;;;;10.63;9.70;;;;;;;15.68;100.00;101605.13;4953098;29;20446;-71
2023/09/06 02:19:06;;;;;;;17.47;11.40;;;;;;;15.64;100.00;101591.91;4943128;29;20424;-70
2023/09/06 02:21:38;;;;;;;9.37;8.57;;;;;;;15.63;100.00;101592.13;4962089;28;20454;-71
2023/09/06 02:24:09;;;;;;;11.43;9.03;;;;;;;15.71;100.00;101600.06;4935132;29;20415;-70
2023/09/06 02:26:40;;;;;;;12.50;8.80;;;;;;;15.71;100.00;101600.06;4958634;28;20430;-72
2023/09/06 02:29:11;;;;;;;10.47;9.47;;;;;;;15.70;100.00;101603.84;4942467;29;20428;-70
2023/09/06 02:31:40;;;;;;;11.13;9.70;;;;;;;15.74;100.00;101607.78;4975243;28;20453;-72
2023/09/06 02:34:10;;;;;;;11.90;9.00;;;;;;;15.73;100.00;101617.06;4958633;29;20430;-71
2023/09/06 02:36:39;;;;;;;9.07;8.17;;;;;;;15.72;100.00;101612.66;4962386;28;20449;-70
2023/09/06 02:39:10;;;;;;;11.37;9.23;;;;;;;15.74;100.00;101610.53;4962207;29;20443;-71
2023/09/06 02:41:39;;;;;;;12.40;9.10;;;;;;;15.76;100.00;101608.41;4948499;28;20459;-72
2023/09/06 02:44:08;;;;;;;12.23;9.70;;;;;;;15.78;100.00;101617.22;4948617;29;20410;-72
2023/09/06 02:46:38;;;;;;;9.90;8.90;;;;;;;15.85;100.00;101623.47;4961875;28;20420;-72
2023/09/06 02:49:12;;;;;;;10.30;9.40;;;;;;;15.97;100.00;101632.66;4953666;29;20514;-70
2023/09/06 02:51:43;;;;;;;10.37;9.37;;;;;;;15.96;100.00;101630.97;4948309;29;20442;-71
2023/09/06 02:54:17;;;;;;;13.33;11.40;;;;;;;15.92;100.00;101627.00;4956425;29;20420;-70
2023/09/06 03:00:24;;;;;;;11.27;10.07;;;;;;;16.09;100.00;101630.88;4909399;29;20462;-73
2023/09/06 03:02:59;;;;;;;11.00;9.67;;;;;;;16.02;100.00;101630.06;4937469;29;20486;-72
2023/09/06 03:05:30;;;;;;;10.60;9.60;;;;;;;16.05;100.00;101637.84;4936019;29;20418;-71
2023/09/06 03:08:01;;;;;;;10.97;9.97;;;;;;;16.02;100.00;101646.44;4925813;29;20467;-71
2023/09/06 03:10:34;;;;;;;9.83;8.93;;;;;;;15.96;100.00;101646.50;4939317;29;20518;-71
2023/09/06 03:13:05;;;;;;;14.43;10.93;;;;;;;15.87;100.00;101648.66;4944533;28;20448;-72
2023/09/06 03:15:35;;;;;;;10.73;9.73;;;;;;;15.79;100.00;101646.19;4941675;28;20402;-72
2023/09/06 03:18:07;;;;;;;10.57;9.57;;;;;;;15.72;100.00;101644.56;4943126;29;20793;-72
2023/09/06 03:20:42;;;;;;;10.30;9.40;;;;;;;15.51;100.00;101642.97;4936414;28;20442;-71
2023/09/06 03:23:24;;;;;;;11.07;9.87;;;;;;;15.30;100.00;101648.69;4955093;28;20454;-71
2023/09/06 03:26:01;;;;;;;11.37;10.20;;;;;;;15.29;100.00;101645.13;4951221;28;20452;-71
2023/09/06 03:28:37;;;;;;;12.77;10.60;;;;;;;15.29;100.00;101645.13;4946232;28;20480;-71
2023/09/06 03:31:09;;;;;;;11.30;10.20;;;;;;;15.40;100.00;101659.97;4927186;29;20723;-71
2023/09/06 03:33:39;;;;;;;11.30;9.60;;;;;;;15.41;100.00;101656.19;4942377;29;20545;-71
2023/09/06 03:36:09;;;;;;;10.97;9.87;;;;;;;15.44;100.00;101653.06;4935634;29;21046;-70
2023/09/06 03:38:39;;;;;;;11.43;10.30;;;;;;;15.49;100.00;101655.97;4933358;28;20418;-71
2023/09/06 03:41:10;;;;;;;11.17;9.17;;;;;;;15.47;100.00;101656.19;4930423;28;20472;-70
2023/09/06 03:43:40;;;;;;;11.87;10.67;;;;;;;15.48;100.00;101659.75;4936063;28;20437;-71
2023/09/06 03:46:13;;;;;;;14.80;11.60;;;;;;;15.53;100.00;101660.81;4947762;28;21054;-71
2023/09/06 03:48:43;;;;;;;10.37;9.37;;;;;;;15.51;100.00;101659.34;4937680;29;20477;-70
2023/09/06 03:51:14;;;;;;;12.47;8.77;;;;;;;15.46;100.00;101668.13;4941213;28;20868;-71
2023/09/06 03:53:43;;;;;;;11.23;9.60;;;;;;;15.44;100.00;101669.41;4929916;29;20428;-72
2023/09/06 03:56:14;;;;;;;10.77;9.67;;;;;;;15.38;100.00;101678.44;4933425;29;20437;-71
2023/09/06 03:58:48;;;;;;;12.03;10.03;;;;;;;15.33;100.00;101673.63;4929587;29;20540;-71
2023/09/06 04:01:19;;;;;;;12.33;10.10;;;;;;;15.29;100.00;101671.56;4924672;29;20482;-70
2023/09/06 04:03:50;;;;;;;13.77;10.27;;;;;;;15.30;100.00;101678.69;4937490;29;20451;-71
2023/09/06 04:06:22;;;;;;;14.30;11.00;;;;;;;15.36;100.00;101680.53;4939356;29;20435;-72
2023/09/06 04:08:53;;;;;;;11.80;10.40;;;;;;;15.31;100.00;101674.88;4945025;28;20489;-71
2023/09/06 04:11:25;;;;;;;13.87;12.40;;;;;;;15.35;100.00;101682.44;4936616;29;20558;-71
2023/09/06 04:13:55;;;;;;;12.87;11.67;;;;;;;15.27;100.00;101687.28;4939137;29;20534;-72
2023/09/06 04:16:27;;;;;;;13.50;12.20;;;;;;;15.25;100.00;101682.03;4936628;29;20427;-72
2023/09/06 04:18:57;;;;;;;11.37;10.27;;;;;;;15.33;100.00;101680.97;4949256;28;20848;-71
2023/09/06 04:21:26;;;;;;;17.50;10.23;;;;;;;15.32;100.00;101679.28;4931183;29;20460;-72
2023/09/06 04:23:56;;;;;;;12.40;11.10;;;;;;;15.34;100.00;101683.50;4922894;29;20427;-70
2023/09/06 04:26:27;;;;;;;13.00;10.67;;;;;;;15.31;100.00;101674.88;4928893;29;20475;-70
2023/09/06 04:28:59;;;;;;;11.60;10.17;;;;;;;15.34;100.00;101674.47;4929154;29;20467;-72
2023/09/06 04:31:28;;;;;;;12.70;11.50;;;;;;;15.33;100.00;101672.81;4930199;29;20442;-72
2023/09/06 04:33:59;;;;;;;15.10;12.40;;;;;;;15.46;100.00;101678.19;4931545;29;20529;-72
2023/09/06 04:36:29;;;;;;;14.30;10.93;;;;;;;15.28;100.00;101675.34;4935627;28;20428;-73
2023/09/06 04:39:07;;;;;;;14.10;12.10;;;;;;;15.16;100.00;101684.16;4937751;29;20448;-71
2023/09/06 04:41:40;;;;;;;12.53;11.27;;;;;;;15.21;100.00;101684.34;4946052;28;20483;-72
2023/09/06 04:44:10;;;;;;;17.13;11.97;;;;;;;15.17;100.00;101683.13;4943437;28;20430;-71
2023/09/06 04:46:40;;;;;;;13.00;11.00;;;;;;;15.22;100.00;101688.78;4938136;29;20460;-72
2023/09/06 04:49:11;;;;;;;15.73;11.63;;;;;;;15.28;100.00;101688.97;4934002;29;20443;-72
2023/09/06 04:51:40;;;;;;;17.80;12.40;;;;;;;15.22;100.00;101688.78;4933610;29;20460;-71
2023/09/06 04:54:10;;;;;;;19.70;11.87;;;;;;;15.20;100.00;101687.31;4929860;29;20448;-71
2023/09/06 04:56:42;;;;;;;14.97;11.03;;;;;;;15.74;100.00;101689.66;4940599;28;20420;-71
2023/09/06 04:59:12;;;;;;;12.47;11.27;;;;;;;16.86;100.00;101691.66;4926102;29;20463;-72
2023/09/06 05:01:41;;;;;;;16.33;11.50;;;;;;;18.33;96.88;101690.53;4936945;29;20697;-72
2023/09/06 05:04:10;;;;;;;13.37;10.60;;;;;;;19.57;87.22;101701.22;4934363;29;20949;-72
2023/09/06 05:06:41;;;;;;;12.60;11.33;;;;;;;20.70;78.66;101705.88;4943894;28;20478;-72
2023/09/06 05:09:15;;;;;;;11.90;10.80;;;;;;;21.14;73.36;101712.38;4928725;29;20807;-72
2023/09/06 05:11:47;;;;;;;13.33;10.97;;;;;;;20.68;74.59;101719.03;4940598;28;21019;-71
2023/09/06 05:14:16;;;;;;;14.80;10.90;;;;;;;20.54;72.94;101714.94;4941669;28;20503;-72
2023/09/06 05:16:51;;;;;;;19.23;11.07;;;;;;;19.36;78.27;101715.56;4949378;28;20986;-71
2023/09/06 05:19:27;;;;;;;15.03;11.47;;;;;;;18.47;82.62;101716.66;4948185;28;20418;-72
2023/09/06 05:21:57;;;;;;;12.20;10.93;;;;;;;17.75;88.21;101719.34;4933512;29;20899;-72
2023/09/06 05:24:26;;;;;;;15.13;11.37;;;;;;;17.29;92.09;101719.00;4933134;29;22084;-74
2023/09/06 05:26:58;;;;;;;13.80;12.40;;;;;;;17.06;94.34;101719.66;4925977;29;20439;-72
2023/09/06 05:29:29;;;;;;;14.07;12.57;;;;;;;16.98;95.72;101716.38;4922225;29;20477;-73
2023/09/06 05:31:58;;;;;;;12.83;11.53;;;;;;;16.95;96.32;101721.22;4928077;29;20462;-73
2023/09/06 05:34:29;;;;;;;15.47;12.17;;;;;;;16.97;96.29;101714.69;4941633;28;20465;-72
2023/09/06 05:36:59;;;;;;;20.03;12.20;;;;;;;17.02;96.12;101715.69;4932458;29;20426;-72
2023/09/06 05:39:30;;;;;;;21.80;11.60;;;;;;;17.11;95.65;101713.50;4947783;28;20434;-72
2023/09/06 05:42:02;;;;;;;16.07;11.00;;;;;;;17.18;95.09;101719.75;4943303;28;20454;-71
2023/09/06 05:44:32;;;;;;;12.63;11.33;;;;;;;17.30;94.47;101718.78;4947152;28;20451;-71
2023/09/06 05:47:01;;;;;;;12.17;10.93;;;;;;;17.37;93.72;101726.91;4943936;28;20493;-71
2023/09/06 05:49:31;;;;;;;20.20;11.67;;;;;;;17.50;92.74;101725.94;4928915;29;20461;-71
2023/09/06 05:52:01;;;;;;;14.57;10.60;;;;;;;17.65;90.89;101721.78;4934637;29;20470;-70
2023/09/06 05:54:30;;;;;;;12.33;11.10;;;;;;;17.74;90.77;101728.63;4934474;29;20456;-71
2023/09/06 05:57:03;;;;;;;16.50;12.10;;;;;;;17.98;88.63;101715.88;4930423;29;20415;-71
2023/09/06 05:59:33;;;;;;;14.63;10.33;;;;;;;18.17;86.77;101727.63;4952065;28;20526;-71
2023/09/06 06:02:02;;;;;;;14.30;11.50;;;;;;;18.27;84.94;101733.38;4940749;28;20916;-71
2023/09/06 06:04:32;;;;;;;14.20;10.90;;;;;;;18.42;84.72;101732.97;4935721;29;20530;-72
2023/09/06 06:07:01;;;;;;;12.00;10.80;;;;;;;18.47;84.97;101733.09;4933304;28;20467;-71
2023/09/06 06:09:30;;;;;;;11.57;10.37;;;;;;;18.58;84.45;101733.16;4936247;28;20799;-72
2023/09/06 06:12:03;;;;;;;14.10;12.50;;;;;;;18.75;83.36;101726.97;4928981;29;20472;-71
2023/09/06 06:14:32;;;;;;;12.17;10.93;;;;;;;18.90;82.54;101725.47;4933171;29;20419;-72
2023/09/06 06:17:02;;;;;;;17.67;11.80;;;;;;;18.97;82.15;101728.94;4928500;29;20488;-71
2023/09/06 06:19:31;;;;;;;13.43;12.20;;;;;;;19.13;81.52;101734.75;4933072;29;20547;-71
2023/09/06 06:22:02;;;;;;;14.80;11.73;;;;;;;19.33;80.07;101741.56;4934664;29;20454;-72
2023/09/06 06:24:34;;;;;;;16.17;11.87;;;;;;;19.44;80.18;101732.53;4920946;29;20449;-72
2023/09/06 06:27:06;;;;;;;12.97;11.67;;;;;;;19.65;78.95;101732.97;4949234;28;20468;-72
2023/09/06 06:29:39;;;;;;;12.70;11.43;;;;;;;19.82;78.49;101731.13;4930690;29;20435;-72
2023/09/06 06:32:08;;;;;;;13.73;12.30;;;;;;;19.94;76.59;101738.25;4932972;29;20819;-71
2023/09/06 06:34:39;;;;;;;12.73;11.53;;;;;;;20.04;76.11;101734.06;4952221;28;20538;-71
2023/09/06 06:37:08;;;;;;;11.93;10.37;;;;;;;20.19;75.00;101742.56;4938711;29;20508;-71
2023/09/06 06:39:37;;;;;;;14.93;13.53;;;;;;;20.27;74.92;101745.78;4937614;29;20418;-71
2023/09/06 06:42:11;;;;;;;15.70;12.33;;;;;;;20.34;74.20;101745.66;4947167;28;20966;-72
2023/09/06 06:44:47;;;;;;;15.63;12.00;;;;;;;20.47;73.33;101739.03;4944845;28;20802;-71
2023/09/06 06:47:17;;;;;;;15.33;12.00;;;;;;;20.60;72.80;101745.03;4934369;28;20522;-69
2023/09/06 06:49:46;;;;;;;16.20;11.37;;;;;;;20.75;71.55;101742.56;4935318;28;20463;-71
2023/09/06 06:52:15;;;;;;;12.77;11.47;;;;;;;20.79;71.70;101748.38;4933313;29;20441;-71
2023/09/06 06:54:45;;;;;;;14.53;11.87;;;;;;;20.88;70.44;101746.06;4954434;28;20442;-71
2023/09/06 06:57:16;;;;;;;14.17;12.53;;;;;;;20.95;69.77;101747.56;4932314;29;20905;-71
2023/09/06 06:59:46;;;;;;;16.60;12.40;;;;;;;20.91;69.25;101751.91;4930167;29;20460;-71
2023/09/06 07:02:15;;;;;;;12.80;11.20;;;;;;;21.11;68.85;101760.47;4948509;28;20484;-71
2023/09/06 07:04:45;;;;;;;16.80;12.43;;;;;;;21.20;69.16;101750.72;4945884;28;20472;-71
2023/09/06 07:07:14;;;;;;;14.10;12.60;;;;;;;21.43;67.43;101754.38;4926716;29;20541;-70
2023/09/06 07:09:44;;;;;;;18.13;11.80;;;;;;;21.58;66.87;101757.34;4936373;29;20508;-70
2023/09/06 07:12:13;;;;;;;13.33;11.70;;;;;;;21.60;66.28;101766.19;4931787;29;21046;-71
2023/09/06 07:14:44;;;;;;;12.70;11.50;;;;;;;21.69;65.93;101764.66;4951151;28;20459;-71
2023/09/06 07:17:13;;;;;;;12.40;11.13;;;;;;;21.84;64.80;101762.09;4926577;29;20450;-71
2023/09/06 07:19:43;;;;;;;19.07;12.20;;;;;;;21.94;64.23;101762.25;4934663;29;20479;-70
2023/09/06 07:22:13;;;;;;;14.60;11.77;;;;;;;22.05;63.86;101754.97;4934337;29;20444;-71
2023/09/06 07:24:42;;;;;;;14.07;12.70;;;;;;;22.10;63.34;101761.38;4940907;29;20816;-70
2023/09/06 07:27:11;;;;;;;10.77;9.67;;;;;;;22.07;62.58;101764.63;4936740;29;20552;-72
2023/09/06 07:29:40;;;;;;;11.00;10.00;;;;;;;22.06;62.96;101760.22;4933335;29;20420;-71
2023/09/06 07:32:11;;;;;;;15.90;10.83;;;;;;;22.19;62.58;101770.00;4929780;29;20476;-70
2023/09/06 07:34:40;;;;;;;10.70;9.50;;;;;;;22.28;61.86;101768.44;4932250;29;20506;-71
2023/09/06 07:37:10;;;;;;;16.80;11.57;;;;;;;22.37;61.95;101774.34;4923618;29;20818;-72
2023/09/06 07:39:39;;;;;;;11.90;10.70;;;;;;;22.44;61.33;101772.22;4933612;29;20450;-72
2023/09/06 07:42:08;;;;;;;15.57;9.73;;;;;;;22.60;61.68;101770.44;4930912;29;20491;-71
2023/09/06 07:44:37;;;;;;;14.47;10.97;;;;;;;22.84;59.99;101769.06;4922638;29;20438;-71
2023/09/06 07:47:06;;;;;;;11.50;10.27;;;;;;;22.98;58.47;101775.78;4936749;29;20538;-72
2023/09/06 07:49:40;;;;;;;14.30;11.17;;;;;;;22.99;58.08;101774.72;4943986;28;20509;-72
2023/09/06 07:52:11;;;;;;;10.23;8.77;;;;;;;22.99;57.91;101773.88;4931927;29;20472;-69
2023/09/06 07:54:41;;;;;;;11.50;10.30;;;;;;;23.06;58.66;101768.94;4937499;29;20446;-71
2023/09/06 07:57:10;;;;;;;10.03;9.10;;;;;;;23.09;58.08;101782.22;4931522;29;20502;-71
2023/09/06 07:59:39;;;;;;;11.10;9.87;;;;;;;23.29;56.86;101780.44;4935459;29;20500;-70
2023/09/06 08:02:09;;;;;;;11.00;9.90;;;;;;;23.36;57.25;101783.81;4932183;29;20566;-72
2023/09/06 08:04:39;;;;;;;10.90;9.90;;;;;;;23.50;56.12;101783.38;4924636;29;20746;-71
2023/09/06 08:07:10;;;;;;;11.60;10.40;;;;;;;23.57;56.00;101787.59;4933454;29;20516;-70
2023/09/06 08:09:39;;;;;;;10.70;9.43;;;;;;;23.64;55.86;101788.16;4927873;29;20466;-72
2023/09/06 08:12:10;;;;;;;11.57;10.03;;;;;;;23.70;55.36;101795.38;4928470;29;20471;-72
2023/09/06 08:15:07;;;;;;;10.17;9.10;;;;;;;23.60;55.80;101791.72;4928431;29;20521;-72
2023/09/06 08:17:37;;;;;;;10.90;8.87;;;;;;;23.64;54.52;101790.91;4938248;28;20453;-72
2023/09/06 08:20:12;;;;;;;12.10;9.70;;;;;;;23.74;55.51;101793.75;4925993;29;20499;-70
2023/09/06 08:22:42;;;;;;;13.40;9.70;;;;;;;23.96;55.51;101790.00;4943272;28;20459;-70
2023/09/06 08:25:13;;;;;;;15.57;9.13;;;;;;;24.14;52.88;101789.50;4935348;29;20475;-70
2023/09/06 08:27:43;;;;;;;12.23;8.93;;;;;;;24.40;53.17;101790.47;4934254;29;20462;-69
2023/09/06 08:31:02;;;;;;;10.17;9.03;;;;;;;24.50;52.33;101796.81;4925605;29;20870;-70
2023/09/06 08:37:45;;;;;;;10.57;9.67;;;;;;;24.47;51.36;101802.91;4909648;29;20448;-71
2023/09/06 08:40:16;;;;;;;10.53;9.53;;;;;;;24.52;51.26;101793.78;4926478;29;20450;-71
2023/09/06 08:42:46;;;;;;;11.50;9.97;;;;;;;24.56;51.20;101797.66;4931756;29;20482;-70
2023/09/06 08:45:22;;;;;;;10.60;9.30;;;;;;;24.74;50.65;101790.78;4921612;29;20468;-70
2023/09/06 08:47:52;;;;;;;12.47;9.77;;;;;;;24.81;50.26;101796.88;4936220;29;20472;-71
2023/09/06 08:50:23;;;;;;;10.47;9.57;;;;;;;24.99;49.62;101793.59;4928102;29;20535;-68
2023/09/06 08:52:55;;;;;;;8.33;7.53;;;;;;;25.05;48.59;101792.50;4926661;29;20472;-71
2023/09/06 08:55:25;;;;;;;12.30;8.80;;;;;;;25.10;48.70;101796.09;4934118;28;20456;-72
2023/09/06 08:57:56;;;;;;;9.53;8.20;;;;;;;25.29;48.14;101796.34;4950114;28;20866;-71
2023/09/06 09:00:25;;;;;;;9.33;8.40;;;;;;;25.34;48.51;101799.13;4934817;29;20455;-72
2023/09/06 09:02:55;;;;;;;8.93;7.67;;;;;;;25.67;46.70;101796.88;4922109;29;20564;-72
2023/09/06 09:05:25;;;;;;;8.67;7.87;;;;;;;25.71;48.00;101800.72;4930573;28;20877;-72
2023/09/06 09:08:01;;;;;;;8.63;7.73;;;;;;;25.90;47.60;101799.84;4933310;29;20910;-72
2023/09/06 09:11:15;;;;;;;8.43;7.63;;;;;;;25.95;46.65;101805.38;4929888;29;20452;-72
2023/09/06 09:13:48;;;;;;;8.03;7.33;;;;;;;25.96;46.15;101804.25;4919562;29;20453;-71
2023/09/06 09:16:18;;;;;;;8.83;7.93;;;;;;;25.95;46.27;101797.03;4930020;29;20868;-71
2023/09/06 09:18:49;;;;;;;8.43;7.53;;;;;;;25.91;45.78;101787.63;4944788;28;20448;-71
2023/09/06 09:21:21;;;;;;;8.30;7.50;;;;;;;25.80;45.96;101796.28;4926192;29;20473;-71
2023/09/06 09:23:55;;;;;;;7.73;7.03;;;;;;;25.88;46.37;101793.75;4909500;29;20555;-71
2023/09/06 09:26:25;;;;;;;9.20;7.80;;;;;;;25.88;45.75;101804.84;4926111;29;20444;-70
2023/09/06 09:33:07;;;;;;;6.50;5.90;;;;;;;26.22;43.99;101807.78;4919504;29;20532;-70
2023/09/06 09:35:37;;;;;;;7.87;7.07;;;;;;;26.36;44.02;101808.00;4927069;29;20515;-70
2023/09/06 09:38:06;;;;;;;8.90;8.00;;;;;;;26.21;44.57;101808.91;4925386;28;20512;-70
2023/09/06 09:40:37;;;;;;;8.67;7.77;;;;;;;26.46;44.38;101807.94;4922240;29;20469;-70
2023/09/06 09:43:20;;;;;;;7.70;6.90;;;;;;;26.38;43.96;101806.56;4942218;28;20479;-69
2023/09/06 09:45:49;;;;;;;13.27;8.53;;;;;;;26.46;43.92;101804.34;4941828;28;20463;-70
2023/09/06 09:48:19;;;;;;;11.83;8.63;;;;;;;26.38;44.40;101805.78;4930847;29;20947;-70
2023/09/06 09:50:55;;;;;;;10.50;7.77;;;;;;;26.38;44.15;101806.56;4926035;29;20899;-70
2023/09/06 09:53:25;;;;;;;9.43;7.47;;;;;;;26.57;43.94;101805.94;4925475;29;20546;-69
2023/09/06 09:55:57;;;;;;;8.27;7.40;;;;;;;26.69;43.96;101807.22;4930496;29;20559;-76
2023/09/06 09:58:34;;;;;;;8.77;7.80;;;;;;;26.82;42.97;101805.75;4944684;28;20457;-72
2023/09/06 10:09:13;;;;;;;8.13;7.33;;;;;;;27.50;42.09;101816.88;4912459;29;20504;-71
2023/09/06 10:11:46;;;;;;;9.57;6.57;;;;;;;27.44;41.11;101804.16;4937209;28;20556;-71
2023/09/06 10:14:18;;;;;;;8.77;7.87;;;;;;;27.45;42.07;101803.84;4927471;29;20845;-71
2023/09/06 10:16:51;;;;;;;10.10;7.10;;;;;;;27.20;42.66;101804.94;4924384;29;20456;-71
2023/09/06 10:19:22;;;;;;;8.40;6.37;;;;;;;27.27;41.53;101798.19;4941257;28;20555;-71
2023/09/06 10:21:51;;;;;;;8.33;7.50;;;;;;;27.30;42.12;101800.41;4940365;28;20532;-71
2023/09/06 10:24:23;;;;;;;7.40;6.73;;;;;;;27.17;42.88;101799.94;4919341;29;20521;-71
2023/09/06 10:26:55;;;;;;;8.03;7.23;;;;;;;27.04;43.23;101797.84;4931742;29;20461;-72
2023/09/06 10:29:25;;;;;;;8.63;7.73;;;;;;;27.19;43.06;101806.03;4936802;28;20464;-71
2023/09/06 10:44:12;;;;;;;8.03;7.33;;;;;;;27.45;41.29;101801.06;4860382;29;20472;-70
2023/09/06 10:46:42;;;;;;;8.03;7.23;;;;;;;27.61;40.10;101807.31;4869910;29;20451;-70
2023/09/06 10:49:23;;;;;;;7.93;7.10;;;;;;;27.72;39.96;101802.47;4870999;29;20978;-70
2023/09/06 10:52:03;;;;;;;9.10;8.23;;;;;;;27.75;40.25;101799.94;4868891;29;20598;-70
2023/09/06 10:54:35;;;;;;;8.47;7.70;;;;;;;27.86;39.05;101801.47;4867001;29;20869;-71
2023/09/06 10:57:06;;;;;;;9.73;7.60;;;;;;;27.81;39.12;101798.75;4868685;29;20977;-70
2023/09/06 10:59:40;;;;;;;8.50;7.60;;;;;;;27.85;39.24;101802.59;4872389;29;20845;-69
2023/09/06 11:02:14;;;;;;;9.27;7.20;;;;;;;27.99;38.81;101792.41;4875289;29;20474;-73
2023/09/06 11:04:47;;;;;;;8.07;7.30;;;;;;;28.05;38.92;101795.97;4859147;29;20484;-69
2023/09/06 11:07:15;;;;;;;7.30;6.70;;;;;;;28.03;39.75;101789.88;4859775;29;20945;-71
2023/09/06 11:09:49;;;;;;;7.97;6.40;;;;;;;27.80;39.40;101788.75;4877165;29;20476;-72
2023/09/06 11:12:18;;;;;;;10.00;6.93;;;;;;;27.89;38.39;101786.97;4866600;29;20475;-70
2023/09/06 11:14:55;;;;;;;8.90;6.40;;;;;;;27.90;38.86;101779.44;4870389;29;20462;-73
2023/09/06 11:17:26;;;;;;;8.10;7.40;;;;;;;27.93;39.40;101782.47;4872494;29;20694;-71
2023/09/06 11:19:55;;;;;;;8.23;7.33;;;;;;;27.89;40.10;101778.63;4919452;28;20512;-71
2023/09/06 11:22:25;;;;;;;7.77;7.07;;;;;;;27.92;40.01;101778.03;4939270;29;20488;-70
2023/09/06 11:24:54;;;;;;;7.10;6.40;;;;;;;28.08;39.18;101778.66;4934031;28;20472;-71
2023/09/06 11:27:29;;;;;;;7.70;6.40;;;;;;;28.14;39.36;101776.66;4926840;29;20452;-71
2023/09/06 11:30:10;;;;;;;8.23;7.07;;;;;;;28.20;39.19;101781.06;4932596;29;21006;-71
2023/09/06 11:32:44;;;;;;;7.83;7.13;;;;;;;28.44;38.98;101771.50;4924179;29;20527;-71
2023/09/06 11:35:14;;;;;;;11.80;7.50;;;;;;;28.58;38.62;101771.59;4927516;29;20459;-71
2023/09/06 11:37:50;;;;;;;9.00;7.40;;;;;;;28.76;38.25;101773.53;4950442;28;20459;-70
2023/09/06 11:40:20;;;;;;;7.40;6.70;;;;;;;28.49;39.11;101773.41;4931022;29;20521;-70
2023/09/06 11:42:53;;;;;;;8.53;7.40;;;;;;;28.48;39.27;101768.94;4922985;29;20844;-71
2023/09/06 11:45:26;;;;;;;7.53;6.60;;;;;;;28.44;38.97;101765.13;4922868;29;20476;-70
2023/09/06 11:47:57;;;;;;;7.00;6.30;;;;;;;28.27;38.50;101759.25;4920321;29;21109;-71
2023/09/06 11:50:29;;;;;;;8.60;7.53;;;;;;;28.39;38.85;101760.44;4934792;28;20440;-70
2023/09/06 11:53:04;;;;;;;7.43;6.70;;;;;;;28.31;38.74;101761.13;4923579;29;20477;-70
2023/09/06 11:55:34;;;;;;;7.53;6.60;;;;;;;28.63;38.33;101765.94;4926789;29;20493;-70
2023/09/06 11:58:03;;;;;;;6.67;6.17;;;;;;;28.60;37.13;101772.13;4947705;28;20460;-69
2023/09/06 12:00:42;;;;;;;6.33;5.73;;;;;;;28.39;37.91;101765.19;4935200;29;20436;-71
2023/09/06 12:07:24;;;;;;;6.13;5.60;;;;;;;28.47;36.96;101761.72;4919318;29;20448;-69